createdAt,value
2017-10-10T00:04:59.245Z,0
2017-10-10T00:10:05.031Z,0
2017-10-10T00:15:10.121Z,0
2017-10-10T00:20:15.549Z,0
2017-10-10T00:25:20.295Z,0
2017-10-10T00:30:25.726Z,0
2017-10-10T00:35:31.499Z,0
2017-10-10T00:40:36.583Z,0
2017-10-10T00:45:42.013Z,0
2017-10-10T00:50:47.801Z,0
2017-10-10T00:55:52.887Z,0
2017-10-10T01:00:58.661Z,0
2017-10-10T01:06:03.403Z,0
2017-10-10T01:11:08.828Z,0
2017-10-10T01:16:14.259Z,0
2017-10-10T01:21:18.998Z,0
2017-10-10T01:26:23.742Z,0
2017-10-10T01:31:29.168Z,0
2017-10-10T01:36:34.594Z,0
2017-10-10T01:41:39.677Z,0
2017-10-10T01:46:45.106Z,0
2017-10-10T01:51:50.183Z,0
2017-10-10T01:56:55.610Z,0
2017-10-10T02:02:00.693Z,0
2017-10-10T02:07:06.461Z,0
2017-10-10T02:12:11.209Z,0
2017-10-10T02:17:16.630Z,0
2017-10-10T02:22:21.367Z,0
2017-10-10T02:27:26.793Z,0
2017-10-10T02:32:31.932Z,0
2017-10-10T02:37:37.721Z,0
2017-10-10T02:42:43.166Z,0
2017-10-10T02:47:49.147Z,0
2017-10-10T02:52:53.939Z,0
2017-10-10T02:57:59.723Z,0
2017-10-10T03:03:05.498Z,0
2017-10-10T03:08:10.578Z,0
2017-10-10T03:13:16.350Z,0
2017-10-10T03:18:21.431Z,0
2017-10-10T03:23:26.861Z,0
2017-10-10T03:28:31.940Z,0
2017-10-10T03:33:37.022Z,0
2017-10-10T03:38:42.105Z,0
2017-10-10T03:43:47.532Z,0
2017-10-10T03:48:52.959Z,0
2017-10-10T03:53:58.049Z,0
2017-10-10T03:59:03.472Z,0
2017-10-10T04:04:08.897Z,0
2017-10-10T04:09:14.319Z,0
2017-10-10T04:14:19.405Z,0
2017-10-10T04:19:24.495Z,0
2017-10-10T04:24:29.574Z,0
2017-10-10T04:29:33.972Z,0
2017-10-10T04:34:39.399Z,0
2017-10-10T04:39:44.480Z,0
2017-10-10T04:44:49.921Z,0
2017-10-10T04:49:55.348Z,0
2017-10-10T04:55:00.089Z,0
2017-10-10T05:00:05.858Z,0
2017-10-10T05:05:11.985Z,0
2017-10-10T05:10:16.381Z,1
2017-10-10T05:15:21.464Z,1
2017-10-10T05:20:26.894Z,1
2017-10-10T05:25:32.011Z,3
2017-10-10T05:30:37.455Z,6
2017-10-10T05:35:42.535Z,8
2017-10-10T05:40:47.965Z,15
2017-10-10T05:45:53.747Z,13
2017-10-10T05:50:58.827Z,26
2017-10-10T05:56:03.572Z,37
2017-10-10T06:01:08.650Z,44
2017-10-10T06:06:13.398Z,43
2017-10-10T06:11:18.492Z,84
2017-10-10T06:16:23.234Z,80
2017-10-10T06:21:28.315Z,106
2017-10-10T06:26:33.401Z,103
2017-10-10T06:31:38.481Z,90
2017-10-10T06:36:43.223Z,98
2017-10-10T06:41:48.308Z,104
2017-10-10T06:46:54.084Z,115
2017-10-10T06:51:59.511Z,130
2017-10-10T06:57:04.597Z,88
2017-10-10T07:02:10.716Z,82
2017-10-10T07:07:15.456Z,101
2017-10-10T07:12:20.545Z,206
2017-10-10T07:17:25.634Z,160
2017-10-10T07:22:30.369Z,167
2017-10-10T07:27:35.110Z,221
2017-10-10T07:32:40.557Z,228
2017-10-10T07:37:46.673Z,208
2017-10-10T07:42:51.759Z,298
2017-10-10T07:47:56.842Z,307
2017-10-10T07:53:02.274Z,443
2017-10-10T07:58:07.014Z,615
2017-10-10T08:03:12.450Z,435
2017-10-10T08:08:17.884Z,349
2017-10-10T08:13:23.658Z,327
2017-10-10T08:18:29.088Z,369
2017-10-10T08:23:34.513Z,417
2017-10-10T08:28:39.252Z,418
2017-10-10T08:33:45.024Z,501
2017-10-10T08:38:49.763Z,483
2017-10-10T08:43:54.499Z,356
2017-10-10T08:48:59.927Z,460
2017-10-10T08:54:05.362Z,419
2017-10-10T08:59:10.448Z,498
2017-10-10T09:04:15.874Z,417
2017-10-10T09:09:20.957Z,407
2017-10-10T09:14:25.697Z,485
2017-10-10T09:19:31.124Z,594
2017-10-10T09:24:36.222Z,695
2017-10-10T09:29:41.655Z,752
2017-10-10T09:34:46.737Z,891
2017-10-10T09:39:52.168Z,606
2017-10-10T09:44:56.970Z,444
2017-10-10T09:50:01.357Z,816
2017-10-10T09:55:07.137Z,338
2017-10-10T10:00:12.222Z,166
2017-10-10T10:05:17.307Z,195
2017-10-10T10:10:22.048Z,679
2017-10-10T10:15:26.445Z,1039
2017-10-10T10:20:32.216Z,851
2017-10-10T10:25:37.302Z,1067
2017-10-10T10:30:42.728Z,1374
2017-10-10T10:35:47.471Z,503
2017-10-10T10:40:52.710Z,1668
2017-10-10T10:45:57.455Z,1554
2017-10-10T10:51:02.886Z,1257
2017-10-10T10:56:08.315Z,1204
2017-10-10T11:01:13.747Z,757
2017-10-10T11:06:19.530Z,2225
2017-10-10T11:11:23.933Z,1847
2017-10-10T11:16:29.715Z,1512
2017-10-10T11:21:34.798Z,2077
2017-10-10T11:26:40.234Z,2346
2017-10-10T11:31:46.008Z,1180
2017-10-10T11:36:51.783Z,794
2017-10-10T11:41:57.558Z,1414
2017-10-10T11:47:02.651Z,1928
2017-10-10T11:52:07.740Z,796
2017-10-10T11:57:13.520Z,980
2017-10-10T12:02:18.257Z,1144
2017-10-10T12:07:24.038Z,1295
2017-10-10T12:12:28.778Z,1486
2017-10-10T12:17:33.867Z,2141
2017-10-10T12:22:39.306Z,1908
2017-10-10T12:27:44.385Z,801
2017-10-10T12:32:49.817Z,2368
2017-10-10T12:37:54.559Z,1217
2017-10-10T12:42:59.994Z,881
2017-10-10T12:48:05.763Z,834
2017-10-10T12:53:11.194Z,828
2017-10-10T12:58:15.938Z,1360
2017-10-10T13:03:21.370Z,909
2017-10-10T13:08:26.458Z,490
2017-10-10T13:13:31.201Z,477
2017-10-10T13:18:35.942Z,552
2017-10-10T13:23:41.031Z,564
2017-10-10T13:28:46.120Z,338
2017-10-10T13:33:51.549Z,390
2017-10-10T13:38:56.637Z,268
2017-10-10T13:44:02.117Z,200
2017-10-10T13:49:07.208Z,345
2017-10-10T13:54:12.638Z,353
2017-10-10T13:59:18.412Z,342
2017-10-10T14:04:23.505Z,358
2017-10-10T14:09:29.625Z,264
2017-10-10T14:14:35.057Z,266
2017-10-10T14:19:40.830Z,134
2017-10-10T14:24:46.601Z,117
2017-10-10T14:29:51.688Z,94
2017-10-10T14:34:56.430Z,106
2017-10-10T14:40:01.527Z,91
2017-10-10T14:45:06.963Z,87
2017-10-10T14:50:12.736Z,87
2017-10-10T14:55:17.825Z,86
2017-10-10T15:00:23.609Z,105
2017-10-10T15:05:29.061Z,116
2017-10-10T15:10:34.497Z,103
2017-10-10T15:15:39.934Z,83
2017-10-10T15:20:44.691Z,92
2017-10-10T15:25:48.753Z,52
2017-10-10T15:30:53.158Z,61
2017-10-10T15:35:58.592Z,75
2017-10-10T15:41:04.736Z,74
2017-10-10T15:46:10.225Z,46
2017-10-10T15:51:16.033Z,35
2017-10-10T15:56:21.482Z,47
2017-10-10T16:01:26.236Z,34
2017-10-10T16:06:31.674Z,13
2017-10-10T16:11:37.529Z,13
2017-10-10T16:16:41.974Z,10
2017-10-10T16:21:48.113Z,8
2017-10-10T16:26:52.866Z,5
2017-10-10T16:31:57.958Z,4
2017-10-10T16:37:04.077Z,3
2017-10-10T16:42:09.856Z,2
2017-10-10T16:47:14.270Z,2
2017-10-10T16:52:19.359Z,1
2017-10-10T16:57:24.445Z,0
2017-10-10T17:02:29.532Z,0
2017-10-10T17:07:34.617Z,0
2017-10-10T17:12:40.395Z,0
2017-10-10T17:17:46.169Z,0
2017-10-10T17:22:52.405Z,0
2017-10-10T17:27:57.844Z,0
2017-10-10T17:33:02.931Z,0
2017-10-10T17:38:08.372Z,0
2017-10-10T17:43:13.475Z,0
2017-10-10T17:48:19.238Z,0
2017-10-10T17:53:24.683Z,0
2017-10-10T17:58:29.768Z,0
2017-10-10T18:03:35.204Z,0
2017-10-10T18:08:39.955Z,0
2017-10-10T18:13:45.396Z,0
2017-10-10T18:18:51.177Z,0
2017-10-10T18:23:56.277Z,0
2017-10-10T18:29:01.715Z,0
2017-10-10T18:34:06.470Z,0
2017-10-10T18:39:11.948Z,0
2017-10-10T18:44:17.030Z,0
2017-10-10T18:49:22.809Z,0
2017-10-10T18:54:28.658Z,0
2017-10-10T18:59:34.231Z,0
2017-10-10T19:04:40.026Z,0
2017-10-10T19:09:45.145Z,0
2017-10-10T19:14:50.271Z,0
2017-10-10T19:19:55.712Z,0
2017-10-10T19:25:00.827Z,0
2017-10-10T19:30:06.260Z,0
2017-10-10T19:35:11.014Z,0
2017-10-10T19:40:16.465Z,0
2017-10-10T19:45:21.547Z,0
2017-10-10T19:50:26.381Z,0
2017-10-10T19:55:31.153Z,0
2017-10-10T20:00:36.923Z,0
2017-10-10T20:05:42.020Z,0
2017-10-10T20:10:47.114Z,0
2017-10-10T20:15:52.305Z,0
2017-10-10T20:20:57.769Z,0
2017-10-10T20:26:02.218Z,0
2017-10-10T20:31:07.662Z,0
2017-10-10T20:36:12.077Z,0
2017-10-10T20:41:17.187Z,0
2017-10-10T20:46:22.620Z,0
2017-10-10T20:51:27.807Z,0
2017-10-10T20:56:32.550Z,0
2017-10-10T21:01:37.982Z,0
2017-10-10T21:06:42.726Z,0
2017-10-10T21:11:47.490Z,0
2017-10-10T21:16:52.560Z,0
2017-10-10T21:21:57.670Z,0
2017-10-10T21:27:03.098Z,0
2017-10-10T21:32:07.843Z,0
2017-10-10T21:37:13.963Z,0
2017-10-10T21:42:19.390Z,0
2017-10-10T21:47:24.475Z,0
2017-10-10T21:52:28.529Z,0
2017-10-10T21:57:33.622Z,0
2017-10-10T22:02:39.405Z,0
2017-10-10T22:07:44.144Z,0
2017-10-10T22:12:49.919Z,0
2017-10-10T22:17:55.053Z,0
2017-10-10T22:23:00.497Z,0
2017-10-10T22:28:06.614Z,0
2017-10-10T22:33:11.701Z,0
2017-10-10T22:38:17.130Z,0
2017-10-10T22:43:22.563Z,0
2017-10-10T22:48:27.998Z,0
2017-10-10T22:53:33.081Z,0
2017-10-10T22:58:38.530Z,0
2017-10-10T23:03:43.965Z,0
2017-10-10T23:08:48.719Z,0
2017-10-10T23:13:53.460Z,0
2017-10-10T23:18:58.553Z,0
2017-10-10T23:24:03.981Z,0
2017-10-10T23:29:08.724Z,0
2017-10-10T23:34:14.159Z,0
2017-10-10T23:39:19.937Z,0
2017-10-10T23:44:25.710Z,0
2017-10-10T23:49:31.486Z,0
2017-10-10T23:54:37.261Z,0
2017-10-10T23:59:42.347Z,0
